Time;durP1;ratioP1;P1;durP2;ratioP2;P2;SDS_P1;SDS_P2;PMS_P1;PMS_P2;Temp;Humidity;BMP_temperature;BMP_pressure;BME280_temperature;BME280_humidity;BME280_pressure;Samples;Min_cycle;Max_cycle;Signal;HPM_P1;HPM_P2
2021/12/13 00:01:21;;;;;;;;;;;;;;;1.72;98.32;97061.13;5019497;28;20012;-84
2021/12/13 00:03:49;;;;;;;;;;;;;;;1.69;99.03;97066.63;5029537;28;19921;-86
2021/12/13 00:06:16;;;;;;;;;;;;;;;1.74;98.60;97066.16;5031743;28;19952;-87
2021/12/13 00:08:47;;;;;;;;;;;;;;;1.77;98.84;97061.44;5019905;28;19921;-86
2021/12/13 00:11:16;;;;;;;;;;;;;;;1.82;98.48;97066.16;5017928;28;19922;-87
2021/12/13 00:13:43;;;;;;;;;;;;;;;1.91;98.42;97075.59;5020338;28;19940;-86
2021/12/13 00:16:12;;;;;;;;;;;;;;;1.91;98.24;97065.22;5021136;28;19921;-87
2021/12/13 00:18:40;;;;;;;;;;;;;;;1.86;98.66;97072.66;5026044;28;19929;-88
2021/12/13 00:21:08;;;;;;;;;;;;;;;1.87;98.24;97071.69;5033718;28;19913;-89
2021/12/13 00:23:36;;;;;;;;;;;;;;;1.82;98.21;97066.97;5032308;28;19909;-87
2021/12/13 00:26:06;;;;;;;;;;;;;;;1.75;98.95;97071.19;5032069;28;19910;-87
2021/12/13 00:28:33;;;;;;;;;;;;;;;1.83;98.89;97062.63;5034098;28;19921;-87
2021/12/13 00:31:09;;;;;;;;;;;;;;;1.71;99.55;97063.88;5031867;28;19944;-84
2021/12/13 00:33:39;;;;;;;;;;;;;;;1.93;100.00;97063.25;5019604;28;19932;-86
2021/12/13 00:36:11;;;;;;;;;;;;;;;1.75;100.00;97060.00;5017322;28;20405;-86
2021/12/13 00:38:40;;;;;;;;;;;;;;;1.73;100.00;97062.75;5018146;28;19921;-85
2021/12/13 00:41:14;;;;;;;;;;;;;;;1.64;100.00;97065.50;5017158;28;19921;-85
2021/12/13 00:43:43;;;;;;;;;;;;;;;1.61;100.00;97066.59;5016066;28;19921;-86
2021/12/13 00:46:10;;;;;;;;;;;;;;;1.51;100.00;97066.75;5022500;28;19968;-86
2021/12/13 00:48:38;;;;;;;;;;;;;;;1.55;100.00;97072.41;5022911;28;20369;-87
2021/12/13 00:51:08;;;;;;;;;;;;;;;1.72;100.00;97073.28;5016185;28;19921;-86
2021/12/13 00:53:37;;;;;;;;;;;;;;;1.64;100.00;97078.44;5016234;28;19925;-87
2021/12/13 00:56:24;;;;;;;;;;;;;;;1.70;100.00;97077.81;5016094;28;20027;-84
2021/12/13 00:58:53;;;;;;;;;;;;;;;1.62;100.00;97070.84;5015254;28;19922;-85
2021/12/13 01:01:25;;;;;;;;;;;;;;;1.71;100.00;97075.06;5007452;28;19928;-84
2021/12/13 01:03:50;;;;;;;;;;;;;;;1.71;100.00;97077.66;5005734;28;19928;-82
2021/12/13 01:06:57;;;;;;;;;;;;;;;1.66;100.00;97077.31;5018030;28;19993;-84
2021/12/13 01:09:42;;;;;;;;;;;;;;;1.62;100.00;97080.41;5018023;28;20304;-86
2021/12/13 01:12:09;;;;;;;;;;;;;;;1.53;100.00;97076.97;5011618;28;19932;-86
2021/12/13 01:14:41;;;;;;;;;;;;;;;1.62;100.00;97081.22;5017609;28;19967;-86
2021/12/13 01:17:16;;;;;;;;;;;;;;;1.55;100.00;97077.59;5032916;28;19941;-84
2021/12/13 01:20:02;;;;;;;;;;;;;;;1.51;100.00;97084.91;5032912;28;19920;-84
2021/12/13 01:27:27;;;;;;;;;;;;;;;1.65;100.00;97080.88;5032958;28;19984;-79
2021/12/13 01:29:54;;;;;;;;;;;;;;;1.73;100.00;97088.69;5028685;28;19910;-77
2021/12/13 01:32:20;;;;;;;;;;;;;;;1.65;100.00;97086.06;4999654;28;19972;-78
2021/12/13 01:34:46;;;;;;;;;;;;;;;1.65;100.00;97087.84;4996217;28;20002;-79
2021/12/13 01:37:16;;;;;;;;;;;;;;;1.75;100.00;97091.94;4996760;28;19925;-78
2021/12/13 01:39:43;;;;;;;;;;;;;;;1.54;100.00;97092.34;4996559;28;19928;-78
2021/12/13 01:42:09;;;;;;;;;;;;;;;1.53;100.00;97087.34;4994311;28;20448;-80
2021/12/13 01:44:36;;;;;;;;;;;;;;;1.52;100.00;97085.72;4995546;28;19957;-78
2021/12/13 01:47:06;;;;;;;;;;;;;;;1.56;100.00;97082.66;4996101;28;19921;-78
2021/12/13 01:49:37;;;;;;;;;;;;;;;1.62;100.00;97091.59;5010173;28;19997;-79
2021/12/13 01:52:12;;;;;;;;;;;;;;;1.76;100.00;97083.16;4999003;28;19922;-78
2021/12/13 01:54:39;;;;;;;;;;;;;;;1.67;100.00;97089.34;4999993;28;19921;-78
2021/12/13 01:57:23;;;;;;;;;;;;;;;1.67;100.00;97083.31;5002424;28;20020;-77
2021/12/13 01:59:54;;;;;;;;;;;;;;;1.82;100.00;97085.13;5000405;28;19922;-78
2021/12/13 02:02:27;;;;;;;;;;;;;;;1.77;100.00;97084.78;5005094;28;19976;-77
2021/12/13 02:05:10;;;;;;;;;;;;;;;1.74;100.00;97087.72;5010097;28;19921;-79
2021/12/13 02:07:37;;;;;;;;;;;;;;;1.65;100.00;97086.06;5011484;28;19925;-78
2021/12/13 02:10:07;;;;;;;;;;;;;;;1.81;100.00;97086.09;5018512;28;19932;-79
2021/12/13 02:12:34;;;;;;;;;;;;;;;1.82;100.00;97095.50;5018306;28;19927;-77
2021/12/13 02:17:46;;;;;;;;;;;;;;;1.92;100.00;97099.75;5023142;28;19929;-77
2021/12/13 02:20:16;;;;;;;;;;;;;;;1.75;100.00;97101.50;5023321;28;19949;-78
2021/12/13 02:22:43;;;;;;;;;;;;;;;1.80;100.00;97099.25;5023440;28;19921;-79
2021/12/13 02:25:12;;;;;;;;;;;;;;;1.79;100.00;97095.84;5017111;28;20342;-79
2021/12/13 02:27:39;;;;;;;;;;;;;;;1.80;100.00;97099.25;5018872;28;20398;-78
2021/12/13 02:30:08;;;;;;;;;;;;;;;1.84;100.00;97091.00;5026726;28;19921;-85
2021/12/13 02:32:35;;;;;;;;;;;;;;;1.79;100.00;97101.03;5024788;28;19940;-82
2021/12/13 02:35:01;;;;;;;;;;;;;;;1.83;100.00;97099.75;5021509;28;19945;-80
2021/12/13 02:37:27;;;;;;;;;;;;;;;1.84;100.00;97105.75;5027184;28;19921;-79
2021/12/13 02:39:59;;;;;;;;;;;;;;;1.73;100.00;97103.44;5024598;28;19940;-80
2021/12/13 02:42:28;;;;;;;;;;;;;;;1.71;100.00;97101.00;5019612;28;19921;-82
2021/12/13 02:44:57;;;;;;;;;;;;;;;1.76;100.00;97106.53;5020442;28;20358;-82
2021/12/13 02:47:29;;;;;;;;;;;;;;;1.93;100.00;97106.56;5019512;28;19925;-81
2021/12/13 02:49:54;;;;;;;;;;;;;;;1.65;100.00;97101.63;5017567;28;20421;-81
2021/12/13 02:52:21;;;;;;;;;;;;;;;1.87;100.00;97105.41;5019137;28;19952;-79
2021/12/13 02:54:48;;;;;;;;;;;;;;;1.71;100.00;97095.81;5029405;28;19929;-85
2021/12/13 02:57:19;;;;;;;;;;;;;;;1.73;100.00;97100.84;5025703;28;20311;-83
2021/12/13 02:59:47;;;;;;;;;;;;;;;1.70;100.00;97101.97;5018225;28;19931;-82
2021/12/13 03:02:14;;;;;;;;;;;;;;;1.75;100.00;97107.50;5021931;28;19940;-81
2021/12/13 03:04:40;;;;;;;;;;;;;;;1.80;100.00;97094.06;5019567;28;19976;-82
2021/12/13 03:07:07;;;;;;;;;;;;;;;1.71;100.00;97101.00;5018805;28;19922;-81
2021/12/13 03:09:34;;;;;;;;;;;;;;;1.69;100.00;97099.53;5017339;28;19951;-82
2021/12/13 03:12:02;;;;;;;;;;;;;;;1.68;100.00;97109.09;5022361;28;19927;-81
2021/12/13 03:14:30;;;;;;;;;;;;;;;1.71;100.00;97098.41;5022381;28;19921;-80
2021/12/13 03:16:57;;;;;;;;;;;;;;;1.89;100.00;97097.50;5020149;28;19944;-83
2021/12/13 03:19:30;;;;;;;;;;;;;;;1.84;100.00;97100.56;5018264;28;19928;-80
2021/12/13 03:22:07;;;;;;;;;;;;;;;1.82;100.00;97092.91;5024213;28;19980;-79
2021/12/13 03:24:48;;;;;;;;;;;;;;;2.05;100.00;97098.31;5017036;28;19921;-81
2021/12/13 03:27:29;;;;;;;;;;;;;;;1.88;100.00;97093.25;5017457;28;19921;-80
2021/12/13 03:30:00;;;;;;;;;;;;;;;1.95;100.00;97100.25;5018144;28;19921;-81
2021/12/13 03:32:32;;;;;;;;;;;;;;;1.88;100.00;97099.25;5020178;28;19953;-81
2021/12/13 03:35:03;;;;;;;;;;;;;;;1.96;100.00;97098.47;5019360;28;19940;-81
2021/12/13 03:37:28;;;;;;;;;;;;;;;1.87;100.00;97102.00;5023649;28;19932;-81
2021/12/13 03:39:59;;;;;;;;;;;;;;;1.87;100.00;97100.22;5023681;28;19921;-81
2021/12/13 03:42:26;;;;;;;;;;;;;;;2.07;100.00;97105.94;5021128;28;20346;-80
2021/12/13 03:44:53;;;;;;;;;;;;;;;1.99;100.00;97103.31;5034711;28;19989;-80
2021/12/13 03:47:22;;;;;;;;;;;;;;;1.92;100.00;97095.38;5020515;28;19929;-81
2021/12/13 03:49:49;;;;;;;;;;;;;;;1.81;100.00;97100.84;5017183;28;19960;-80
2021/12/13 03:52:16;;;;;;;;;;;;;;;1.84;100.00;97096.19;5017250;28;20106;-80
2021/12/13 03:54:43;;;;;;;;;;;;;;;1.94;100.00;97100.38;5018540;28;19913;-80
2021/12/13 03:57:08;;;;;;;;;;;;;;;1.81;100.00;97098.28;5020173;28;19960;-81
2021/12/13 03:59:37;;;;;;;;;;;;;;;1.73;100.00;97096.47;5018478;28;19922;-80
2021/12/13 04:02:06;;;;;;;;;;;;;;;1.76;100.00;97098.72;5024311;28;19909;-87
2021/12/13 04:04:37;;;;;;;;;;;;;;;1.89;100.00;97090.50;5035161;28;19919;-88
2021/12/13 04:07:06;;;;;;;;;;;;;;;1.94;100.00;97095.19;5030220;28;20009;-89
2021/12/13 04:09:31;;;;;;;;;;;;;;;1.98;100.00;97099.09;5020177;28;19922;-88
2021/12/13 04:11:59;;;;;;;;;;;;;;;1.90;100.00;97099.09;5021203;28;20404;-87
2021/12/13 04:14:28;;;;;;;;;;;;;;;1.95;100.00;97102.03;5022800;28;19948;-88
2021/12/13 04:17:19;;;;;;;;;;;;;;;1.90;100.00;97099.91;5023220;28;19932;-88
2021/12/13 04:19:50;;;;;;;;;;;;;;;1.94;100.00;97100.38;5018653;28;19921;-89
2021/12/13 04:22:18;;;;;;;;;;;;;;;1.97;100.00;97105.28;5019246;28;19931;-88
2021/12/13 04:24:45;;;;;;;;;;;;;;;2.06;100.00;97099.13;5017836;28;20044;-89
2021/12/13 04:27:17;;;;;;;;;;;;;;;2.06;100.00;97109.50;5018351;28;20163;-84
2021/12/13 04:29:45;;;;;;;;;;;;;;;1.95;100.00;97107.22;5018486;28;20166;-84
2021/12/13 04:32:15;;;;;;;;;;;;;;;2.07;100.00;97100.75;5020525;28;19925;-85
2021/12/13 04:34:42;;;;;;;;;;;;;;;2.09;100.00;97109.19;5019378;28;20084;-83
2021/12/13 04:37:12;;;;;;;;;;;;;;;1.96;100.00;97117.44;5018634;28;19984;-88
2021/12/13 04:39:40;;;;;;;;;;;;;;;2.01;100.00;97117.78;5021108;28;19921;-87
2021/12/13 04:42:07;;;;;;;;;;;;;;;2.13;100.00;97101.88;5026083;28;19925;-87
2021/12/13 04:44:34;;;;;;;;;;;;;;;2.05;100.00;97113.09;5017762;28;19921;-87
2021/12/13 04:47:03;;;;;;;;;;;;;;;2.03;100.00;97112.41;5022255;28;20030;-83
2021/12/13 04:49:31;;;;;;;;;;;;;;;2.03;100.00;97120.19;5028039;28;20004;-88
2021/12/13 04:51:58;;;;;;;;;;;;;;;1.99;100.00;97118.88;5017654;28;19957;-86
2021/12/13 04:54:29;;;;;;;;;;;;;;;1.82;100.00;97113.66;5016674;28;20318;-87
2021/12/13 04:56:56;;;;;;;;;;;;;;;1.97;100.00;97111.28;5017863;28;19925;-86
2021/12/13 04:59:21;;;;;;;;;;;;;;;1.89;100.00;97105.28;5018222;28;20007;-85
2021/12/13 05:01:51;;;;;;;;;;;;;;;1.92;100.00;97110.13;5018063;28;19945;-85
2021/12/13 05:04:18;;;;;;;;;;;;;;;1.98;100.00;97106.88;5017240;28;19968;-86
2021/12/13 05:06:44;;;;;;;;;;;;;;;2.09;100.00;97104.78;5018230;28;19939;-86
2021/12/13 05:09:11;;;;;;;;;;;;;;;1.95;100.00;97107.22;5029868;28;19949;-86
2021/12/13 05:11:39;;;;;;;;;;;;;;;1.90;100.00;97099.09;5029483;28;19921;-86
2021/12/13 05:14:06;;;;;;;;;;;;;;;1.82;100.00;97112.84;5019780;28;19944;-83
2021/12/13 05:16:37;;;;;;;;;;;;;;;2.03;100.00;97115.00;5023804;28;19921;-84
2021/12/13 05:19:04;;;;;;;;;;;;;;;1.94;100.00;97116.78;5022510;28;19966;-84
2021/12/13 05:21:33;;;;;;;;;;;;;;;1.93;100.00;97119.53;5020052;28;19940;-83
2021/12/13 05:24:00;;;;;;;;;;;;;;;1.90;100.00;97119.88;5019260;28;19926;-83
2021/12/13 05:26:31;;;;;;;;;;;;;;;2.05;100.00;97123.47;5018024;28;19925;-84
2021/12/13 05:29:00;;;;;;;;;;;;;;;2.00;100.00;97118.75;5040157;23;19991;-83
2021/12/13 05:31:26;;;;;;;;;;;;;;;1.92;100.00;97123.91;5034507;28;20345;-83
2021/12/13 05:33:53;;;;;;;;;;;;;;;1.88;100.00;97121.78;5027722;28;19948;-83
2021/12/13 05:36:22;;;;;;;;;;;;;;;2.15;100.00;97126.69;5020140;28;20009;-84
2021/12/13 05:38:48;;;;;;;;;;;;;;;2.11;100.00;97125.41;5019688;28;19997;-84
2021/12/13 05:41:19;;;;;;;;;;;;;;;2.00;100.00;97125.72;5020577;28;20385;-84
2021/12/13 05:43:48;;;;;;;;;;;;;;;1.94;100.00;97126.34;5021017;28;19922;-85
2021/12/13 05:46:17;;;;;;;;;;;;;;;2.07;100.00;97131.88;5022159;28;19928;-84
2021/12/13 05:48:45;;;;;;;;;;;;;;;2.27;100.00;97130.63;5021563;28;19970;-84
2021/12/13 05:51:34;;;;;;;;;;;;;;;2.23;100.00;97129.31;5020453;28;19921;-85
2021/12/13 05:54:01;;;;;;;;;;;;;;;2.10;100.00;97132.41;4990903;28;19957;-85
2021/12/13 05:56:28;;;;;;;;;;;;;;;2.16;100.00;97136.13;5001895;28;19928;-85
2021/12/13 05:58:55;;;;;;;;;;;;;;;2.17;100.00;97140.34;5011816;28;19923;-85
2021/12/13 06:01:24;;;;;;;;;;;;;;;2.06;100.00;97145.84;5012131;28;19929;-84
2021/12/13 06:03:51;;;;;;;;;;;;;;;2.20;100.00;97150.41;5015487;28;19925;-81
2021/12/13 06:06:19;;;;;;;;;;;;;;;2.14;100.00;97152.81;5020652;28;19909;-84
2021/12/13 06:08:48;;;;;;;;;;;;;;;2.19;100.00;97151.38;5029781;28;20015;-85
2021/12/13 06:11:14;;;;;;;;;;;;;;;2.02;100.00;97149.72;5024881;28;19929;-84
2021/12/13 06:13:52;;;;;;;;;;;;;;;2.24;100.00;97154.31;5026026;28;19989;-84
2021/12/13 06:16:19;;;;;;;;;;;;;;;2.17;100.00;97148.13;5024241;28;19956;-85
2021/12/13 06:19:03;;;;;;;;;;;;;;;2.09;100.00;97155.88;5023380;28;19929;-86
2021/12/13 06:21:34;;;;;;;;;;;;;;;2.24;100.00;97158.69;5023440;28;19921;-82
2021/12/13 06:23:59;;;;;;;;;;;;;;;2.43;100.00;97152.41;5031399;28;19921;-82
2021/12/13 06:26:26;;;;;;;;;;;;;;;2.35;100.00;97172.16;5026420;28;19990;-84
2021/12/13 06:28:53;;;;;;;;;;;;;;;2.59;99.53;97160.19;5018017;28;19922;-83
2021/12/13 06:31:20;;;;;;;;;;;;;;;2.45;100.00;97166.00;5022559;28;19921;-84
2021/12/13 06:33:49;;;;;;;;;;;;;;;2.36;100.00;97171.19;5033964;28;19913;-82
2021/12/13 06:36:21;;;;;;;;;;;;;;;2.42;100.00;97168.91;5032000;28;19921;-85
2021/12/13 06:38:48;;;;;;;;;;;;;;;2.49;100.00;97162.94;5026615;28;19921;-82
2021/12/13 06:41:16;;;;;;;;;;;;;;;2.53;100.00;97166.00;5032690;28;19932;-84
2021/12/13 06:43:43;;;;;;;;;;;;;;;2.52;100.00;97167.78;5030423;28;19929;-83
2021/12/13 06:46:10;;;;;;;;;;;;;;;2.47;100.00;97169.25;5027209;28;19922;-83
2021/12/13 06:48:38;;;;;;;;;;;;;;;2.46;100.00;97178.84;5027425;28;20020;-83
2021/12/13 06:51:07;;;;;;;;;;;;;;;2.51;100.00;97178.34;5028533;28;20009;-83
2021/12/13 06:53:32;;;;;;;;;;;;;;;2.52;99.49;97179.97;5030512;28;19910;-82
2021/12/13 06:55:57;;;;;;;;;;;;;;;2.61;99.33;97182.41;5022034;28;19925;-81
2021/12/13 06:58:25;;;;;;;;;;;;;;;2.69;98.80;97179.03;5020435;28;19928;-81
2021/12/13 07:00:55;;;;;;;;;;;;;;;2.80;97.99;97175.28;5021732;28;20036;-83
2021/12/13 07:03:22;;;;;;;;;;;;;;;2.63;98.41;97182.25;5022615;28;19921;-83
2021/12/13 07:05:48;;;;;;;;;;;;;;;2.63;98.52;97167.47;5021488;28;19928;-84
2021/12/13 07:08:19;;;;;;;;;;;;;;;2.57;98.16;97178.50;5011824;28;19982;-84
2021/12/13 07:10:46;;;;;;;;;;;;;;;2.36;99.79;97175.56;5015915;28;20005;-84
2021/12/13 07:13:21;;;;;;;;;;;;;;;2.47;99.51;97179.66;5020708;28;19921;-84
2021/12/13 07:15:50;;;;;;;;;;;;;;;2.46;99.76;97175.44;5014855;28;20317;-84
2021/12/13 07:18:16;;;;;;;;;;;;;;;2.57;100.00;97177.72;5001264;28;19972;-84
2021/12/13 07:20:44;;;;;;;;;;;;;;;2.55;100.00;97172.69;5001261;28;19933;-83
2021/12/13 07:23:09;;;;;;;;;;;;;;;2.49;100.00;97164.72;5000194;28;19921;-83
2021/12/13 07:25:40;;;;;;;;;;;;;;;2.56;99.96;97181.28;5004832;28;19921;-84
2021/12/13 07:28:07;;;;;;;;;;;;;;;2.62;100.00;97180.63;5010669;28;19922;-84
2021/12/13 07:30:33;;;;;;;;;;;;;;;2.75;99.26;97185.38;5021878;28;19936;-84
2021/12/13 07:33:03;;;;;;;;;;;;;;;2.65;99.57;97187.31;5032079;28;19932;-83
2021/12/13 07:35:30;;;;;;;;;;;;;;;2.66;99.40;97189.72;5027191;28;20040;-84
2021/12/13 07:37:59;;;;;;;;;;;;;;;2.62;99.88;97193.63;5023152;28;19983;-84
2021/12/13 07:40:32;;;;;;;;;;;;;;;2.67;100.00;97191.34;5021099;28;19921;-84
2021/12/13 07:43:05;;;;;;;;;;;;;;;2.59;100.00;97191.38;5029813;28;19993;-83
2021/12/13 07:45:31;;;;;;;;;;;;;;;2.66;100.00;97194.13;5025144;28;19933;-84
2021/12/13 07:47:59;;;;;;;;;;;;;;;2.59;99.93;97193.97;5034596;28;19921;-84
2021/12/13 07:50:25;;;;;;;;;;;;;;;2.69;99.59;97197.22;5032392;28;19929;-83
2021/12/13 07:52:56;;;;;;;;;;;;;;;2.78;99.38;97193.63;5031906;28;19956;-84
2021/12/13 07:55:26;;;;;;;;;;;;;;;2.88;99.48;97199.47;5033618;28;19933;-84
2021/12/13 07:57:53;;;;;;;;;;;;;;;3.06;99.03;97211.47;5030893;28;19988;-84
2021/12/13 08:00:21;;;;;;;;;;;;;;;3.26;97.80;97206.75;5029740;28;20004;-83
2021/12/13 08:02:52;;;;;;;;;;;;;;;3.19;96.84;97222.22;5027507;28;19921;-84
2021/12/13 08:05:22;;;;;;;;;;;;;;;3.12;96.39;97219.47;5024869;28;19948;-84
2021/12/13 08:07:49;;;;;;;;;;;;;;;3.48;95.32;97216.47;5024364;28;19925;-83
2021/12/13 08:10:18;;;;;;;;;;;;;;;3.20;96.72;97223.00;5025674;28;19932;-84
2021/12/13 08:12:46;;;;;;;;;;;;;;;3.11;96.92;97217.81;5024202;28;19921;-83
2021/12/13 08:15:13;;;;;;;;;;;;;;;3.21;96.72;97222.84;5024096;28;19929;-84
2021/12/13 08:17:43;;;;;;;;;;;;;;;2.95;97.80;97220.41;5031338;28;19954;-83
2021/12/13 08:20:10;;;;;;;;;;;;;;;3.09;97.74;97229.34;5021467;28;19972;-84
2021/12/13 08:22:41;;;;;;;;;;;;;;;3.07;97.29;97223.53;5024660;28;19928;-83
2021/12/13 08:25:08;;;;;;;;;;;;;;;3.29;97.10;97228.06;5025238;28;19921;-84
2021/12/13 08:27:34;;;;;;;;;;;;;;;3.21;96.65;97219.44;5031891;28;19922;-83
2021/12/13 08:30:09;;;;;;;;;;;;;;;3.22;97.58;97226.25;5025391;28;19925;-83
2021/12/13 08:32:35;;;;;;;;;;;;;;;3.36;96.65;97229.00;5033929;28;20380;-82
2021/12/13 08:35:04;;;;;;;;;;;;;;;3.84;96.00;97222.06;5033327;28;19999;-83
2021/12/13 08:37:33;;;;;;;;;;;;;;;4.02;94.22;97228.81;5027515;28;19921;-82
2021/12/13 08:40:02;;;;;;;;;;;;;;;3.85;94.45;97233.28;5031513;28;19980;-83
2021/12/13 08:42:31;;;;;;;;;;;;;;;3.73;94.90;97235.44;5021175;28;20011;-83
2021/12/13 08:45:03;;;;;;;;;;;;;;;3.70;94.70;97230.53;5020165;28;19925;-84
2021/12/13 08:47:35;;;;;;;;;;;;;;;3.57;95.39;97230.28;5021619;28;19925;-83
2021/12/13 08:50:05;;;;;;;;;;;;;;;3.67;95.83;97236.09;5020859;28;19925;-84
2021/12/13 08:52:35;;;;;;;;;;;;;;;3.77;95.37;97239.31;5026469;28;19928;-83
2021/12/13 08:55:03;;;;;;;;;;;;;;;4.02;93.78;97239.22;5026289;28;19948;-83
2021/12/13 08:57:35;;;;;;;;;;;;;;;3.91;92.78;97233.41;5026854;28;19921;-83
2021/12/13 09:00:08;;;;;;;;;;;;;;;3.93;93.40;97231.47;5020782;28;20061;-82
2021/12/13 09:02:37;;;;;;;;;;;;;;;4.02;93.63;97239.22;5022577;28;19921;-82
2021/12/13 09:05:07;;;;;;;;;;;;;;;4.19;92.74;97235.56;5021069;28;19928;-83
2021/12/13 09:07:33;;;;;;;;;;;;;;;4.07;92.83;97236.94;5028839;28;19969;-83
2021/12/13 09:09:58;;;;;;;;;;;;;;;3.92;93.46;97240.22;5026110;28;19921;-83
2021/12/13 09:12:30;;;;;;;;;;;;;;;3.76;95.29;97242.88;5024767;28;19985;-84
2021/12/13 09:14:57;;;;;;;;;;;;;;;3.72;95.67;97240.81;5026776;28;19931;-84
2021/12/13 09:17:26;;;;;;;;;;;;;;;3.76;95.89;97239.47;5035910;28;19909;-84
2021/12/13 09:19:54;;;;;;;;;;;;;;;3.69;96.01;97250.56;5026859;28;19922;-82
2021/12/13 09:22:23;;;;;;;;;;;;;;;3.71;96.11;97246.97;5029241;28;19989;-83
2021/12/13 09:24:51;;;;;;;;;;;;;;;3.87;95.85;97249.53;5024969;28;20032;-84
2021/12/13 09:27:23;;;;;;;;;;;;;;;3.90;95.81;97247.41;5022714;28;19944;-83
2021/12/13 09:29:54;;;;;;;;;;;;;;;3.87;95.24;97257.31;5029845;28;19921;-83
2021/12/13 09:32:23;;;;;;;;;;;;;;;3.91;95.15;97248.22;5026322;28;19925;-84
2021/12/13 09:34:51;;;;;;;;;;;;;;;3.94;95.40;97255.69;5022447;28;19996;-85
2021/12/13 09:37:19;;;;;;;;;;;;;;;3.88;95.23;97254.59;5024939;28;19921;-83
2021/12/13 09:39:56;;;;;;;;;;;;;;;4.23;95.05;97262.91;5022407;28;19944;-83
2021/12/13 09:42:24;;;;;;;;;;;;;;;4.28;94.49;97260.59;5024303;28;20035;-83
2021/12/13 09:44:55;;;;;;;;;;;;;;;4.39;93.73;97257.59;5025688;28;20413;-85
2021/12/13 09:47:22;;;;;;;;;;;;;;;4.38;93.53;97261.19;5025641;28;20012;-84
2021/12/13 09:49:48;;;;;;;;;;;;;;;4.43;94.30;97252.88;5035973;28;19916;-84
2021/12/13 09:52:16;;;;;;;;;;;;;;;4.39;94.37;97251.59;5031188;28;19921;-84
2021/12/13 09:54:43;;;;;;;;;;;;;;;4.50;94.52;97242.56;5033940;28;19928;-83
2021/12/13 09:57:11;;;;;;;;;;;;;;;4.43;95.00;97245.88;5033970;28;19929;-84
2021/12/13 09:59:38;;;;;;;;;;;;;;;4.27;96.43;97245.97;5031585;28;19996;-83
2021/12/13 10:02:05;;;;;;;;;;;;;;;4.33;96.79;97247.06;5029602;28;19921;-83
2021/12/13 10:04:32;;;;;;;;;;;;;;;4.45;96.25;97241.28;5029528;28;19999;-84
2021/12/13 10:06:59;;;;;;;;;;;;;;;4.43;95.56;97242.47;5023652;28;19922;-82
2021/12/13 10:09:28;;;;;;;;;;;;;;;4.32;96.34;97237.63;5026331;28;19963;-83
2021/12/13 10:11:57;;;;;;;;;;;;;;;4.41;96.40;97234.81;5022365;28;19925;-83
2021/12/13 10:14:26;;;;;;;;;;;;;;;4.51;95.77;97226.75;5027705;28;19928;-82
2021/12/13 10:16:54;;;;;;;;;;;;;;;4.39;95.77;97230.75;5026071;28;20434;-84
2021/12/13 10:19:22;;;;;;;;;;;;;;;4.57;96.03;97227.88;5029546;28;19948;-83
2021/12/13 10:21:48;;;;;;;;;;;;;;;4.41;96.04;97216.59;5029056;28;20016;-83
2021/12/13 10:24:15;;;;;;;;;;;;;;;4.26;96.98;97220.91;5027217;28;19992;-84
2021/12/13 10:26:43;;;;;;;;;;;;;;;4.26;97.54;97220.91;5028519;28;19933;-83
2021/12/13 10:29:12;;;;;;;;;;;;;;;4.35;98.16;97225.06;5027758;28;20297;-83
2021/12/13 10:31:42;;;;;;;;;;;;;;;4.52;98.57;97220.59;5028219;28;19921;-83
2021/12/13 10:34:09;;;;;;;;;;;;;;;4.73;98.60;97217.34;5033528;28;19933;-83
2021/12/13 10:36:37;;;;;;;;;;;;;;;4.71;96.93;97220.13;5034597;28;19956;-83
2021/12/13 10:39:06;;;;;;;;;;;;;;;4.61;96.57;97209.13;5027600;28;20309;-83
2021/12/13 10:41:35;;;;;;;;;;;;;;;4.88;97.30;97201.75;5026729;28;19928;-83
2021/12/13 10:44:02;;;;;;;;;;;;;;;4.84;96.53;97209.09;5027737;28;19921;-83
2021/12/13 10:46:29;;;;;;;;;;;;;;;4.92;96.79;97205.63;5027414;28;19928;-82
2021/12/13 10:48:58;;;;;;;;;;;;;;;5.02;95.91;97201.00;5026828;28;20393;-83
2021/12/13 10:51:28;;;;;;;;;;;;;;;5.14;95.91;97203.97;5026353;28;20381;-83
2021/12/13 10:53:55;;;;;;;;;;;;;;;5.06;95.36;97204.03;5026116;28;19935;-83
2021/12/13 10:56:22;;;;;;;;;;;;;;;5.13;95.31;97203.19;5024877;28;20025;-84
2021/12/13 10:58:49;;;;;;;;;;;;;;;5.13;94.33;97202.38;5024501;28;19929;-84
2021/12/13 11:01:17;;;;;;;;;;;;;;;5.34;93.91;97207.72;5026079;28;19940;-83
2021/12/13 11:03:45;;;;;;;;;;;;;;;5.43;94.59;97193.56;5026276;28;19963;-85
2021/12/13 11:06:15;;;;;;;;;;;;;;;5.45;93.40;97202.06;5026689;28;19944;-85
2021/12/13 11:08:46;;;;;;;;;;;;;;;5.24;93.32;97199.31;5025583;28;19921;-82
2021/12/13 11:11:15;;;;;;;;;;;;;;;5.37;94.17;97204.72;5022629;28;19944;-83
2021/12/13 11:13:41;;;;;;;;;;;;;;;5.40;94.02;97193.94;5029642;28;19921;-83
2021/12/13 11:16:08;;;;;;;;;;;;;;;5.39;95.45;97202.78;5025080;28;19928;-83
2021/12/13 11:18:34;;;;;;;;;;;;;;;5.41;94.05;97195.56;5023095;28;20281;-83
2021/12/13 11:21:04;;;;;;;;;;;;;;;5.55;94.28;97193.16;5022751;28;19931;-83
2021/12/13 11:23:32;;;;;;;;;;;;;;;5.58;93.98;97190.16;5024795;28;19921;-84
2021/12/13 11:26:01;;;;;;;;;;;;;;;5.55;93.53;97190.56;5022502;28;19931;-84
2021/12/13 11:28:29;;;;;;;;;;;;;;;5.63;92.55;97187.84;5028122;28;19921;-81
2021/12/13 11:30:55;;;;;;;;;;;;;;;5.55;94.00;97182.72;5040454;23;19968;-83
2021/12/13 11:33:35;;;;;;;;;;;;;;;5.45;92.53;97182.97;5037497;28;19917;-84
2021/12/13 11:36:33;;;;;;;;;;;;;;;5.53;94.35;97183.69;5033167;28;19909;-86
2021/12/13 11:39:13;;;;;;;;;;;;;;;5.57;93.53;97183.34;5029255;28;19960;-86
2021/12/13 11:41:49;;;;;;;;;;;;;;;5.62;93.51;97176.59;5029008;28;19921;-86
2021/12/13 11:44:24;;;;;;;;;;;;;;;5.65;93.61;97172.78;5028148;28;19948;-86
2021/12/13 11:47:08;;;;;;;;;;;;;;;5.68;93.48;97169.84;5028063;28;19921;-85
2021/12/13 11:49:43;;;;;;;;;;;;;;;5.68;93.59;97169.84;5029293;28;19914;-84
2021/12/13 11:52:25;;;;;;;;;;;;;;;5.68;93.66;97167.22;5032530;28;19921;-85
2021/12/13 11:55:09;;;;;;;;;;;;;;;5.83;92.82;97167.22;5036981;28;19921;-85
2021/12/13 11:57:53;;;;;;;;;;;;;;;5.79;93.95;97167.56;5030444;28;19925;-86
2021/12/13 12:00:39;;;;;;;;;;;;;;;5.83;92.71;97162.81;5027902;28;19932;-85
2021/12/13 12:03:22;;;;;;;;;;;;;;;5.90;92.42;97158.47;5025619;28;19928;-85
2021/12/13 12:06:05;;;;;;;;;;;;;;;6.00;92.47;97156.41;5025861;28;19925;-87
2021/12/13 12:08:51;;;;;;;;;;;;;;;6.06;93.38;97160.09;5024793;28;19947;-86
2021/12/13 12:11:35;;;;;;;;;;;;;;;6.20;92.72;97153.22;5017727;28;19967;-87
2021/12/13 12:14:06;;;;;;;;;;;;;;;6.16;92.51;97147.53;5026891;28;20377;-85
2021/12/13 12:16:34;;;;;;;;;;;;;;;6.16;91.90;97146.75;5028383;28;19969;-85
2021/12/13 12:19:02;;;;;;;;;;;;;;;6.32;92.90;97141.28;5032526;28;19933;-86
2021/12/13 12:21:39;;;;;;;;;;;;;;;6.36;92.44;97147.75;5026442;28;20293;-87
2021/12/13 12:24:06;;;;;;;;;;;;;;;6.54;92.51;97132.44;5025745;28;19921;-86
2021/12/13 12:26:35;;;;;;;;;;;;;;;6.61;92.02;97131.69;5025204;28;19928;-86
2021/12/13 12:29:08;;;;;;;;;;;;;;;6.55;92.01;97136.66;5026633;28;20013;-86
2021/12/13 12:31:38;;;;;;;;;;;;;;;6.69;92.95;97136.81;5028893;28;19921;-84
2021/12/13 12:34:06;;;;;;;;;;;;;;;6.62;91.30;97135.91;5027607;28;19933;-87
2021/12/13 12:36:41;;;;;;;;;;;;;;;6.62;91.23;97141.16;5024717;28;19921;-87
2021/12/13 12:39:24;;;;;;;;;;;;;;;6.65;91.94;97135.56;5025978;28;20356;-87
2021/12/13 12:42:01;;;;;;;;;;;;;;;6.51;91.44;97134.63;5024409;28;19921;-86
2021/12/13 12:44:31;;;;;;;;;;;;;;;6.50;92.05;97133.81;5023372;28;19979;-85
2021/12/13 12:46:58;;;;;;;;;;;;;;;6.46;92.46;97137.81;5023743;28;19980;-87
2021/12/13 12:49:25;;;;;;;;;;;;;;;6.51;92.89;97132.00;5023335;28;19991;-86
2021/12/13 12:51:52;;;;;;;;;;;;;;;6.39;93.14;97138.72;5024337;28;20369;-86
2021/12/13 12:54:19;;;;;;;;;;;;;;;6.53;93.28;97130.03;5024016;28;19925;-86
2021/12/13 12:56:46;;;;;;;;;;;;;;;6.58;92.40;97131.06;5031152;28;19909;-85
2021/12/13 12:59:15;;;;;;;;;;;;;;;6.60;93.04;97127.47;5030129;28;19925;-85
2021/12/13 13:01:46;;;;;;;;;;;;;;;6.50;94.17;97127.78;5025129;28;19952;-87
2021/12/13 13:04:15;;;;;;;;;;;;;;;6.48;93.93;97135.00;5023402;28;19925;-86
2021/12/13 13:06:48;;;;;;;;;;;;;;;6.34;93.62;97139.28;5022218;28;20009;-85
2021/12/13 13:09:14;;;;;;;;;;;;;;;6.51;95.38;97143.28;5023998;28;19948;-86
2021/12/13 13:11:44;;;;;;;;;;;;;;;6.49;94.64;97136.63;5030947;28;19917;-83
2021/12/13 13:14:10;;;;;;;;;;;;;;;6.24;94.40;97134.38;5024442;28;19921;-85